createdAt,value
2022-09-16T00:01:21.669Z,90.60
2022-09-16T00:03:50.507Z,90.63
2022-09-16T00:06:22.347Z,90.43
2022-09-16T00:08:53.451Z,90.54
2022-09-16T00:11:21.839Z,91.27
2022-09-16T00:13:50.528Z,90.67
2022-09-16T00:16:22.563Z,90.83
2022-09-16T00:18:54.902Z,90.44
2022-09-16T00:21:23.762Z,91.24
2022-09-16T00:23:53.183Z,91.32
2022-09-16T00:26:21.392Z,91.33
2022-09-16T00:28:52.972Z,91.30
2022-09-16T00:31:21.198Z,91.47
2022-09-16T00:33:49.391Z,91.47
2022-09-16T00:36:20.600Z,91.63
2022-09-16T00:38:53.387Z,91.49
2022-09-16T00:41:26.621Z,91.44
2022-09-16T00:43:58.587Z,91.29
2022-09-16T00:46:34.538Z,91.44
2022-09-16T00:49:07.768Z,91.43
2022-09-16T00:51:36.053Z,91.11
2022-09-16T00:54:09.876Z,91.25
2022-09-16T00:56:41.000Z,91.41
2022-09-16T00:59:15.640Z,91.04
2022-09-16T01:01:44.930Z,91.33
2022-09-16T01:04:21.275Z,91.28
2022-09-16T01:06:50.657Z,91.13
2022-09-16T01:09:23.523Z,91.06
2022-09-16T01:11:51.804Z,91.16
2022-09-16T01:14:38.873Z,91.09
2022-09-16T01:17:15.125Z,91.11
2022-09-16T01:20:09.637Z,91.13
2022-09-16T01:22:56.531Z,91.04
2022-09-16T01:25:39.901Z,90.89
2022-09-16T01:28:34.223Z,91.16
2022-09-16T01:31:13.757Z,91.19
2022-09-16T01:33:53.600Z,91.28
2022-09-16T01:36:35.380Z,91.43
2022-09-16T01:39:16.734Z,91.58
2022-09-16T01:42:02.212Z,91.27
2022-09-16T01:44:40.454Z,91.22
2022-09-16T01:47:18.588Z,91.26
2022-09-16T01:49:58.655Z,91.41
2022-09-16T01:52:36.834Z,91.28
2022-09-16T01:55:09.555Z,91.29
2022-09-16T01:57:46.304Z,91.13
2022-09-16T02:00:16.317Z,91.00
2022-09-16T02:02:50.429Z,91.16
2022-09-16T02:05:23.880Z,91.28
2022-09-16T02:07:57.220Z,91.30
2022-09-16T02:10:31.893Z,91.26
2022-09-16T02:13:06.452Z,91.47
2022-09-16T02:15:35.580Z,91.48
2022-09-16T02:18:11.776Z,91.60
2022-09-16T02:20:44.026Z,91.12
2022-09-16T02:23:17.161Z,91.20
2022-09-16T02:25:48.770Z,91.53
2022-09-16T02:28:22.970Z,91.38
2022-09-16T02:30:54.491Z,91.60
2022-09-16T02:33:24.607Z,91.55
2022-09-16T02:35:55.439Z,91.34
2022-09-16T02:38:27.462Z,91.37
2022-09-16T02:40:59.463Z,91.11
2022-09-16T02:43:29.548Z,90.98
2022-09-16T02:46:10.900Z,91.40
2022-09-16T02:48:54.318Z,91.26
2022-09-16T02:51:33.622Z,91.30
2022-09-16T02:54:07.482Z,91.28
2022-09-16T02:56:39.334Z,91.62
2022-09-16T02:59:10.398Z,91.44
2022-09-16T03:01:42.778Z,91.81
2022-09-16T03:04:15.879Z,91.77
2022-09-16T03:06:44.516Z,91.73
2022-09-16T03:09:15.210Z,91.75
2022-09-16T03:12:08.821Z,91.65
2022-09-16T03:14:58.320Z,91.55
2022-09-16T03:17:46.402Z,91.86
2022-09-16T03:20:28.906Z,91.78
2022-09-16T03:23:05.840Z,91.90
2022-09-16T03:25:47.641Z,91.87
2022-09-16T03:28:19.627Z,91.70
2022-09-16T03:31:03.048Z,91.74
2022-09-16T03:33:42.549Z,91.52
2022-09-16T03:36:21.018Z,91.62
2022-09-16T03:39:12.530Z,91.72
2022-09-16T03:41:42.213Z,91.84
2022-09-16T03:44:34.872Z,91.22
2022-09-16T03:47:12.645Z,91.52
2022-09-16T03:50:01.585Z,91.38
2022-09-16T03:52:40.216Z,91.56
2022-09-16T03:55:23.657Z,91.76
2022-09-16T03:57:57.552Z,91.63
2022-09-16T04:00:26.181Z,91.91
2022-09-16T04:02:55.776Z,91.95
2022-09-16T04:05:24.569Z,91.87
2022-09-16T04:07:53.972Z,91.87
2022-09-16T04:10:22.066Z,92.12
2022-09-16T04:12:52.351Z,91.95
2022-09-16T04:15:20.351Z,92.14
2022-09-16T04:17:48.394Z,91.87
2022-09-16T04:20:16.661Z,92.17
2022-09-16T04:22:44.741Z,91.89
2022-09-16T04:25:14.303Z,91.89
2022-09-16T04:27:42.354Z,92.12
2022-09-16T04:30:12.942Z,92.46
2022-09-16T04:32:41.014Z,92.40
2022-09-16T04:35:10.404Z,92.20
2022-09-16T04:37:38.556Z,92.34
2022-09-16T04:40:07.754Z,92.35
2022-09-16T04:42:37.215Z,91.88
2022-09-16T04:45:06.765Z,91.93
2022-09-16T04:47:35.726Z,91.96
2022-09-16T04:50:03.762Z,92.17
2022-09-16T04:52:32.020Z,92.13
2022-09-16T04:55:00.054Z,92.29
2022-09-16T04:57:34.726Z,91.86
2022-09-16T05:00:05.452Z,91.91
2022-09-16T05:02:33.541Z,92.55
2022-09-16T05:05:01.595Z,92.34
2022-09-16T05:07:30.177Z,92.24
2022-09-16T05:10:01.144Z,92.50
2022-09-16T05:12:30.891Z,92.48
2022-09-16T05:14:59.075Z,92.78
2022-09-16T05:17:50.354Z,92.33
2022-09-16T05:20:19.504Z,92.88
2022-09-16T05:22:51.132Z,92.60
2022-09-16T05:25:19.413Z,92.38
2022-09-16T05:27:47.460Z,92.32
2022-09-16T05:30:17.527Z,92.34
2022-09-16T05:32:47.365Z,92.28
2022-09-16T05:35:15.847Z,92.31
2022-09-16T05:37:43.889Z,92.14
2022-09-16T05:40:12.180Z,92.53
2022-09-16T05:42:40.349Z,92.47
2022-09-16T05:45:10.104Z,92.48
2022-09-16T05:47:38.217Z,92.35
2022-09-16T05:50:09.476Z,92.38
2022-09-16T05:52:37.627Z,92.43
2022-09-16T05:55:06.909Z,92.45
2022-09-16T05:57:35.247Z,92.23
2022-09-16T06:00:04.560Z,92.38
2022-09-16T06:02:33.331Z,92.47
2022-09-16T06:05:02.321Z,92.46
2022-09-16T06:07:31.942Z,92.23
2022-09-16T06:10:00.562Z,92.01
2022-09-16T06:12:28.667Z,91.85
2022-09-16T06:14:56.706Z,91.91
2022-09-16T06:17:24.822Z,92.13
2022-09-16T06:19:53.102Z,92.01
2022-09-16T06:22:21.720Z,92.30
2022-09-16T06:24:55.287Z,92.21
2022-09-16T06:27:23.392Z,92.12
2022-09-16T06:29:51.666Z,92.07
2022-09-16T06:32:19.644Z,92.00
2022-09-16T06:34:47.805Z,91.80
2022-09-16T06:37:15.856Z,91.62
2022-09-16T06:39:44.806Z,91.30
2022-09-16T06:42:14.277Z,91.23
2022-09-16T06:44:45.760Z,91.50
2022-09-16T06:47:13.789Z,91.29
2022-09-16T06:49:41.923Z,91.67
2022-09-16T06:52:11.722Z,90.96
2022-09-16T06:54:39.778Z,91.49
2022-09-16T06:57:11.943Z,91.26
2022-09-16T06:59:41.860Z,91.15
2022-09-16T07:02:11.896Z,91.07
2022-09-16T07:04:40.707Z,91.36
2022-09-16T07:07:10.409Z,90.40
2022-09-16T07:09:38.911Z,91.20
2022-09-16T07:12:07.920Z,90.92
2022-09-16T07:14:36.354Z,91.13
2022-09-16T07:17:06.258Z,90.95
2022-09-16T07:19:34.372Z,91.13
2022-09-16T07:22:02.418Z,90.88
2022-09-16T07:24:31.028Z,91.30
2022-09-16T07:26:59.052Z,90.67
2022-09-16T07:29:27.955Z,89.90
2022-09-16T07:31:56.039Z,89.65
2022-09-16T07:34:25.440Z,89.85
2022-09-16T07:36:53.814Z,89.30
2022-09-16T07:39:22.840Z,89.23
2022-09-16T07:41:51.016Z,88.99
2022-09-16T07:44:21.293Z,88.67
2022-09-16T07:46:51.112Z,87.75
2022-09-16T07:49:20.071Z,87.40
2022-09-16T07:51:49.678Z,87.57
2022-09-16T07:54:20.178Z,87.35
2022-09-16T07:56:48.537Z,86.02
2022-09-16T07:59:19.583Z,85.60
2022-09-16T08:01:49.454Z,85.53
2022-09-16T08:04:18.725Z,85.29
2022-09-16T08:06:47.173Z,84.42
2022-09-16T08:12:08.025Z,82.96
2022-09-16T08:14:36.454Z,82.82
2022-09-16T08:17:05.033Z,82.31
2022-09-16T08:19:33.089Z,81.75
2022-09-16T08:22:04.234Z,81.11
2022-09-16T08:24:33.744Z,80.52
2022-09-16T08:27:01.838Z,80.15
2022-09-16T08:29:30.015Z,79.50
2022-09-16T08:31:58.191Z,79.07
2022-09-16T08:34:26.360Z,79.10
2022-09-16T08:36:54.462Z,77.95
2022-09-16T08:39:22.634Z,77.35
2022-09-16T08:42:22.027Z,76.62
2022-09-16T08:45:04.837Z,76.06
2022-09-16T08:47:44.606Z,75.27
2022-09-16T08:50:21.565Z,75.08
2022-09-16T08:52:50.146Z,74.29
2022-09-16T08:55:23.803Z,74.00
2022-09-16T08:57:59.656Z,72.54
2022-09-16T09:00:28.015Z,71.88
2022-09-16T09:03:01.412Z,71.56
2022-09-16T09:05:44.199Z,70.62
2022-09-16T09:08:32.317Z,69.46
2022-09-16T09:11:06.780Z,68.51
2022-09-16T09:14:07.985Z,67.67
2022-09-16T09:16:44.534Z,66.56
2022-09-16T09:19:30.158Z,64.28
2022-09-16T09:22:08.034Z,63.10
2022-09-16T09:24:56.960Z,61.52
2022-09-16T09:27:29.732Z,61.74
2022-09-16T09:30:09.791Z,63.43
2022-09-16T09:33:17.543Z,66.16
2022-09-16T09:36:24.410Z,68.26
2022-09-16T09:39:20.447Z,68.78
2022-09-16T09:41:52.762Z,67.04
2022-09-16T09:44:47.110Z,65.48
2022-09-16T09:47:23.148Z,64.54
2022-09-16T09:49:55.051Z,63.95
2022-09-16T09:52:31.704Z,63.94
2022-09-16T09:55:16.274Z,63.61
2022-09-16T09:58:02.062Z,62.97
2022-09-16T10:00:30.266Z,62.20
2022-09-16T10:03:10.411Z,60.96
2022-09-16T10:05:38.970Z,59.42
2022-09-16T10:08:20.212Z,59.05
2022-09-16T10:10:52.522Z,59.45
2022-09-16T10:13:21.373Z,62.14
2022-09-16T10:15:54.820Z,63.57
2022-09-16T10:18:29.744Z,64.59
2022-09-16T10:21:05.407Z,63.56
2022-09-16T10:23:35.344Z,61.29
2022-09-16T10:26:22.299Z,61.01
2022-09-16T10:29:16.450Z,60.54
2022-09-16T10:31:45.124Z,60.58
2022-09-16T10:34:25.076Z,60.24
2022-09-16T10:37:06.192Z,59.33
2022-09-16T10:39:35.386Z,59.33
2022-09-16T10:42:04.396Z,59.78
2022-09-16T10:44:35.025Z,59.46
2022-09-16T10:47:06.990Z,59.37
2022-09-16T10:49:41.640Z,58.98
2022-09-16T10:52:18.649Z,57.83
2022-09-16T10:54:46.990Z,57.25
2022-09-16T10:57:31.743Z,57.14
2022-09-16T11:00:11.883Z,57.65
2022-09-16T11:03:23.717Z,57.14
2022-09-16T11:06:12.262Z,57.56
2022-09-16T11:08:55.987Z,58.01
2022-09-16T11:11:53.546Z,57.57
2022-09-16T11:14:37.433Z,56.94
2022-09-16T11:17:23.514Z,56.86
2022-09-16T11:20:18.752Z,55.48
2022-09-16T11:22:57.281Z,53.36
2022-09-16T11:25:45.319Z,52.58
2022-09-16T11:29:03.447Z,50.90
2022-09-16T11:31:49.224Z,53.27
2022-09-16T11:34:40.853Z,58.15
2022-09-16T11:37:20.470Z,62.89
2022-09-16T11:40:13.836Z,65.67
2022-09-16T11:42:46.697Z,67.95
2022-09-16T11:45:35.162Z,68.22
2022-09-16T11:48:31.037Z,68.20
2022-09-16T11:51:10.087Z,68.84
2022-09-16T11:54:01.100Z,68.12
2022-09-16T11:56:39.405Z,66.99
2022-09-16T11:59:18.920Z,65.62
2022-09-16T12:01:52.916Z,63.38
2022-09-16T12:04:28.113Z,60.38
2022-09-16T12:07:02.347Z,56.83
2022-09-16T12:09:42.204Z,53.03
2022-09-16T12:12:16.059Z,52.19
2022-09-16T12:14:50.182Z,50.60
2022-09-16T12:17:22.616Z,49.87
2022-09-16T12:20:00.117Z,49.32
2022-09-16T12:22:34.831Z,48.62
2022-09-16T12:25:10.862Z,47.62
2022-09-16T12:27:49.089Z,47.58
2022-09-16T12:30:20.632Z,46.88
2022-09-16T12:33:01.686Z,46.87
2022-09-16T12:35:35.459Z,46.60
2022-09-16T12:38:03.797Z,46.18
2022-09-16T12:40:42.476Z,45.89
2022-09-16T12:43:34.391Z,45.52
2022-09-16T12:47:02.252Z,45.20
2022-09-16T12:50:16.918Z,45.99
2022-09-16T12:53:25.171Z,45.26
2022-09-16T12:56:09.793Z,45.44
2022-09-16T12:59:16.054Z,45.94
2022-09-16T13:01:48.021Z,46.17
2022-09-16T13:04:19.831Z,47.52
2022-09-16T13:06:51.166Z,48.02
2022-09-16T13:09:26.149Z,49.30
2022-09-16T13:14:50.945Z,49.77
2022-09-16T13:17:30.678Z,50.01
2022-09-16T13:20:08.555Z,49.47
2022-09-16T13:22:46.058Z,49.37
2022-09-16T13:25:24.535Z,48.19
2022-09-16T13:28:02.109Z,47.77
2022-09-16T13:30:38.228Z,46.90
2022-09-16T13:33:30.303Z,46.14
2022-09-16T13:36:33.296Z,48.79
2022-09-16T13:39:03.086Z,52.96
2022-09-16T13:41:35.991Z,54.95
2022-09-16T13:44:43.273Z,55.63
2022-09-16T13:47:18.977Z,55.60
2022-09-16T13:49:51.792Z,56.45
2022-09-16T13:52:25.607Z,57.73
2022-09-16T13:55:12.148Z,60.33
2022-09-16T13:57:58.437Z,61.58
2022-09-16T14:00:36.027Z,60.82
2022-09-16T14:03:29.297Z,59.55
2022-09-16T14:06:50.066Z,58.96
2022-09-16T14:09:32.101Z,58.44
2022-09-16T14:12:13.432Z,58.13
2022-09-16T14:14:47.268Z,58.06
2022-09-16T14:17:21.817Z,57.07
2022-09-16T14:19:53.801Z,55.83
2022-09-16T14:22:25.668Z,55.67
2022-09-16T14:25:05.929Z,55.28
2022-09-16T14:27:39.299Z,54.98
2022-09-16T14:30:16.938Z,54.39
2022-09-16T14:32:49.352Z,53.64
2022-09-16T14:35:22.019Z,52.73
2022-09-16T14:37:54.805Z,51.81
2022-09-16T14:40:25.784Z,51.81
2022-09-16T14:42:58.506Z,54.10
2022-09-16T14:45:26.955Z,56.00
2022-09-16T14:47:58.897Z,59.26
2022-09-16T14:50:30.086Z,62.60
2022-09-16T14:53:00.500Z,65.31
2022-09-16T14:55:31.324Z,67.19
2022-09-16T14:58:00.799Z,68.64
2022-09-16T15:00:34.184Z,69.25
2022-09-16T15:03:12.308Z,69.98
2022-09-16T15:05:43.855Z,70.08
2022-09-16T15:08:19.087Z,70.81
2022-09-16T15:10:53.289Z,71.99
2022-09-16T15:13:25.771Z,72.10
2022-09-16T15:15:57.165Z,72.78
2022-09-16T15:18:29.611Z,73.07
2022-09-16T15:21:06.095Z,74.00
2022-09-16T15:23:36.171Z,73.60
2022-09-16T15:26:16.042Z,74.09
2022-09-16T15:28:57.087Z,74.37
2022-09-16T15:31:35.200Z,73.60
2022-09-16T15:34:20.717Z,74.16
2022-09-16T15:36:51.635Z,74.78
2022-09-16T15:39:26.571Z,75.28
2022-09-16T15:42:12.114Z,76.30
2022-09-16T15:44:47.613Z,76.47
2022-09-16T15:47:21.864Z,77.16
2022-09-16T15:49:55.524Z,78.06
2022-09-16T15:52:23.859Z,78.58
2022-09-16T15:54:55.086Z,79.05
2022-09-16T15:57:33.038Z,79.22
2022-09-16T16:00:11.479Z,79.85
2022-09-16T16:02:44.514Z,80.48
2022-09-16T16:05:16.755Z,80.80
2022-09-16T16:07:48.319Z,80.70
2022-09-16T16:10:20.320Z,81.08
2022-09-16T16:12:49.393Z,81.99
2022-09-16T16:15:19.989Z,82.39
2022-09-16T16:17:49.751Z,82.71
2022-09-16T16:20:21.698Z,82.87
2022-09-16T16:22:49.859Z,83.52
2022-09-16T16:25:18.300Z,83.85
2022-09-16T16:27:46.701Z,83.89
2022-09-16T16:30:15.120Z,84.07
2022-09-16T16:32:43.298Z,84.58
2022-09-16T16:35:11.354Z,84.64
2022-09-16T16:37:46.347Z,85.09
2022-09-16T16:40:16.156Z,84.89
2022-09-16T16:42:47.064Z,85.53
2022-09-16T16:45:16.047Z,85.59
2022-09-16T16:47:46.281Z,85.32
2022-09-16T16:50:19.301Z,86.06
2022-09-16T16:52:53.237Z,86.06
2022-09-16T16:55:21.396Z,86.18
2022-09-16T16:57:49.767Z,87.02
2022-09-16T17:00:18.817Z,87.07
2022-09-16T17:02:47.024Z,86.75
2022-09-16T17:05:15.330Z,86.77
2022-09-16T17:07:43.895Z,87.57
2022-09-16T17:10:13.339Z,87.12
2022-09-16T17:12:42.361Z,87.63
2022-09-16T17:15:11.374Z,87.50
2022-09-16T17:17:40.493Z,87.74
2022-09-16T17:20:09.969Z,87.72
2022-09-16T17:22:38.093Z,88.21
2022-09-16T17:25:09.552Z,88.23
2022-09-16T17:27:39.062Z,88.34
2022-09-16T17:30:09.192Z,88.40
2022-09-16T17:32:37.393Z,88.54
2022-09-16T17:35:06.775Z,88.54
2022-09-16T17:37:37.803Z,88.96
2022-09-16T17:40:07.441Z,89.06
2022-09-16T17:42:37.958Z,89.12
2022-09-16T17:45:07.842Z,89.26
2022-09-16T17:47:36.209Z,89.28
2022-09-16T17:50:05.391Z,88.74
2022-09-16T17:52:33.490Z,89.58
2022-09-16T17:55:01.944Z,89.01
2022-09-16T17:57:33.061Z,89.47
2022-09-16T18:00:03.761Z,89.35
2022-09-16T18:02:32.046Z,89.36
2022-09-16T18:05:00.260Z,89.46
2022-09-16T18:07:28.542Z,89.89
2022-09-16T18:09:56.750Z,89.47
2022-09-16T18:12:25.161Z,89.40
2022-09-16T18:14:53.755Z,89.89
2022-09-16T18:17:23.209Z,89.54
2022-09-16T18:19:51.242Z,90.04
2022-09-16T18:22:19.406Z,89.91
2022-09-16T18:24:47.599Z,89.79
2022-09-16T18:27:15.750Z,89.86
2022-09-16T18:29:43.926Z,89.90
2022-09-16T18:32:12.119Z,90.46
2022-09-16T18:34:41.553Z,90.57
2022-09-16T18:37:09.802Z,90.61
2022-09-16T18:39:38.259Z,91.08
2022-09-16T18:42:06.911Z,90.57
2022-09-16T18:44:35.288Z,90.97
2022-09-16T18:47:03.431Z,90.62
2022-09-16T18:49:31.884Z,90.64
2022-09-16T18:52:01.487Z,91.08
2022-09-16T18:54:30.518Z,91.38
2022-09-16T18:57:01.144Z,90.79
2022-09-16T18:59:34.081Z,90.76
2022-09-16T19:02:04.035Z,90.58
2022-09-16T19:04:39.572Z,90.67
2022-09-16T19:07:14.249Z,90.67
2022-09-16T19:09:42.542Z,90.91
2022-09-16T19:12:13.384Z,90.85
2022-09-16T19:14:42.453Z,90.91
2022-09-16T19:17:11.123Z,90.93
2022-09-16T19:19:39.299Z,91.21
2022-09-16T19:22:08.931Z,90.86
2022-09-16T19:24:38.370Z,91.18
2022-09-16T19:27:06.761Z,91.56
2022-09-16T19:29:34.888Z,91.32
2022-09-16T19:32:03.281Z,91.36
2022-09-16T19:34:31.508Z,91.49
2022-09-16T19:36:59.717Z,91.50
2022-09-16T19:39:29.309Z,91.80
2022-09-16T19:42:03.296Z,91.36
2022-09-16T19:44:31.872Z,91.54
2022-09-16T19:47:01.394Z,91.45
2022-09-16T19:49:29.528Z,91.54
2022-09-16T19:51:57.642Z,91.91
2022-09-16T19:54:26.278Z,92.18
2022-09-16T19:56:56.206Z,92.05
2022-09-16T19:59:24.721Z,91.59
2022-09-16T20:01:53.172Z,91.82
2022-09-16T20:04:21.499Z,91.85
2022-09-16T20:06:51.360Z,91.76
2022-09-16T20:09:20.216Z,92.00
2022-09-16T20:11:49.715Z,91.81
2022-09-16T20:14:21.766Z,92.17
2022-09-16T20:16:52.840Z,91.94
2022-09-16T20:19:21.765Z,92.23
2022-09-16T20:21:50.097Z,92.05
2022-09-16T20:24:20.765Z,91.86
2022-09-16T20:26:49.945Z,91.76
2022-09-16T20:29:20.718Z,92.05
2022-09-16T20:31:52.557Z,91.90
2022-09-16T20:34:23.887Z,91.94
2022-09-16T20:36:52.353Z,92.12
2022-09-16T20:39:20.610Z,92.58
2022-09-16T20:41:52.477Z,92.39
2022-09-16T20:44:21.942Z,92.03
2022-09-16T20:46:50.249Z,92.55
2022-09-16T20:49:20.376Z,92.35
2022-09-16T20:51:48.657Z,92.46
2022-09-16T20:54:17.690Z,92.34
2022-09-16T20:56:47.843Z,92.52
2022-09-16T20:59:19.843Z,91.87
2022-09-16T21:01:50.584Z,92.31
2022-09-16T21:04:21.327Z,92.30
2022-09-16T21:06:49.638Z,92.42
2022-09-16T21:09:19.301Z,92.30
2022-09-16T21:11:50.129Z,92.32
2022-09-16T21:14:21.470Z,92.22
2022-09-16T21:16:52.633Z,92.58
2022-09-16T21:19:20.848Z,92.42
2022-09-16T21:21:49.467Z,92.17
2022-09-16T21:24:18.195Z,92.60
2022-09-16T21:26:47.035Z,92.37
2022-09-16T21:29:18.912Z,92.47
2022-09-16T21:31:47.746Z,92.57
2022-09-16T21:34:20.190Z,92.27
2022-09-16T21:36:49.665Z,92.76
2022-09-16T21:39:19.725Z,92.04
2022-09-16T21:41:49.160Z,92.42
2022-09-16T21:44:19.221Z,92.32
2022-09-16T21:46:48.310Z,92.04
2022-09-16T21:49:22.360Z,92.28
2022-09-16T21:51:51.459Z,92.46
2022-09-16T21:54:20.602Z,92.41
2022-09-16T21:56:49.519Z,92.87
2022-09-16T21:59:19.632Z,92.12
2022-09-16T22:01:50.490Z,91.78
2022-09-16T22:04:22.743Z,92.13
2022-09-16T22:06:52.593Z,92.00
2022-09-16T22:09:20.882Z,92.25
2022-09-16T22:11:49.306Z,92.33
2022-09-16T22:14:18.225Z,92.52
2022-09-16T22:16:46.350Z,92.49
2022-09-16T22:19:17.575Z,92.16
2022-09-16T22:21:49.363Z,92.67
2022-09-16T22:24:20.486Z,92.45
2022-09-16T22:26:50.464Z,92.23
2022-09-16T22:29:18.877Z,92.44
2022-09-16T22:31:47.070Z,92.42
2022-09-16T22:34:15.360Z,92.46
2022-09-16T22:36:43.486Z,92.40
2022-09-16T22:39:16.786Z,92.35
2022-09-16T22:41:45.282Z,92.38
2022-09-16T22:44:14.207Z,92.04
2022-09-16T22:46:44.447Z,92.47
2022-09-16T22:49:13.632Z,92.24
2022-09-16T22:51:42.408Z,92.36
2022-09-16T22:54:14.112Z,92.65
2022-09-16T22:56:42.842Z,92.33
2022-09-16T22:59:17.951Z,92.46
2022-09-16T23:01:46.366Z,92.28
2022-09-16T23:04:15.016Z,91.96
2022-09-16T23:06:43.294Z,92.26
2022-09-16T23:09:15.010Z,92.16
2022-09-16T23:11:44.030Z,92.31
2022-09-16T23:14:15.737Z,92.25
2022-09-16T23:16:43.969Z,92.28
2022-09-16T23:19:13.101Z,92.34
2022-09-16T23:21:41.906Z,92.14
2022-09-16T23:24:17.109Z,92.29
2022-09-16T23:26:46.924Z,92.24
2022-09-16T23:29:18.068Z,92.50
2022-09-16T23:31:46.636Z,92.14
2022-09-16T23:34:18.466Z,91.87
2022-09-16T23:36:46.659Z,91.94
2022-09-16T23:39:17.888Z,92.01
2022-09-16T23:41:46.696Z,91.67
2022-09-16T23:44:16.057Z,91.97
2022-09-16T23:46:45.226Z,92.01
2022-09-16T23:49:16.790Z,91.81
2022-09-16T23:51:44.884Z,91.63
2022-09-16T23:54:13.037Z,91.58
2022-09-16T23:56:43.273Z,91.59
2022-09-16T23:59:11.429Z,91.23
